Busk, Ukraine
Current Conditions -  °F | °C
As of 3:30 AM on Sunday 26 Oct 2014 (Local Time) from UKLL Reporting Station
Clear Clear  
Wind Chill: 14°   Ceiling: Unl
Heat Index: 25°   Visibility: 6mi
Dew Point: 21°   Wind: 11mph
Humidity: 86%   Direction: 150°SSE
Pressure: 30.42"   Gusts: NA
Location:  49.97°N, 24.63°E
Report Text: UKLL 260030Z 15005MPS CAVOK M04/M06 Q1030 13CLRD80 NOSIG
Loading
Personal Weather Stations






























Interactive Weather Map
Tropical Storm Tracking
New forecast layout! Learn more

10-Day Weather Forecast

Advertisements
Track Severe Weather on mobile